Time;durP1;ratioP1;P1;durP2;ratioP2;P2;SDS_P1;SDS_P2;PMS_P1;PMS_P2;Temp;Humidity;BMP_temperature;BMP_pressure;BME280_temperature;BME280_humidity;BME280_pressure;Samples;Min_cycle;Max_cycle;Signal;HPM_P1;HPM_P2
2022/02/25 00:02:23;;;;;;;1.60;1.07;;;4.60;80.30;;;;;;4975204;28;20290;-74
2022/02/25 00:04:48;;;;;;;4.90;1.20;;;4.60;80.50;;;;;;4984581;28;20534;-74
2022/02/25 00:07:14;;;;;;;1.27;1.00;;;4.60;80.80;;;;;;4987509;28;20257;-74
2022/02/25 00:09:40;;;;;;;2.40;1.13;;;4.60;80.00;;;;;;4980225;28;20182;-73
2022/02/25 00:12:06;;;;;;;3.27;1.00;;;4.60;79.70;;;;;;4975456;28;20646;-72
2022/02/25 00:14:31;;;;;;;3.00;1.13;;;4.50;79.70;;;;;;4971434;28;20612;-75
2022/02/25 00:16:57;;;;;;;4.63;1.20;;;4.50;79.90;;;;;;4975857;28;20489;-76
2022/02/25 00:19:24;;;;;;;4.43;1.57;;;4.40;79.90;;;;;;4974257;28;20183;-73
2022/02/25 00:21:51;;;;;;;3.17;1.33;;;4.40;80.50;;;;;;4975110;28;20199;-75
2022/02/25 00:24:17;;;;;;;2.30;1.10;;;4.40;78.90;;;;;;4978539;28;20509;-74
2022/02/25 00:26:43;;;;;;;4.60;0.90;;;4.40;79.30;;;;;;4975757;28;20431;-73
2022/02/25 00:29:09;;;;;;;4.10;1.20;;;4.40;80.50;;;;;;4985277;28;20415;-74
2022/02/25 00:31:36;;;;;;;1.53;1.10;;;4.40;80.30;;;;;;4977539;28;20788;-76
2022/02/25 00:34:02;;;;;;;2.63;1.47;;;4.40;80.20;;;;;;4976833;28;20801;-74
2022/02/25 00:36:28;;;;;;;6.97;1.50;;;4.40;80.50;;;;;;4980872;28;20995;-75
2022/02/25 00:38:54;;;;;;;5.13;1.80;;;4.40;80.60;;;;;;4966306;28;20509;-74
2022/02/25 00:41:19;;;;;;;2.13;1.20;;;4.40;80.20;;;;;;4981276;28;20193;-75
2022/02/25 00:43:45;;;;;;;1.50;1.00;;;4.40;80.50;;;;;;4977696;28;20470;-77
2022/02/25 00:46:11;;;;;;;3.83;1.83;;;4.40;80.30;;;;;;4976332;28;20194;-74
2022/02/25 00:48:37;;;;;;;4.00;1.40;;;4.40;80.20;;;;;;4976753;28;20427;-75
2022/02/25 00:51:03;;;;;;;3.43;1.50;;;4.40;80.50;;;;;;4994989;28;20187;-75
2022/02/25 00:53:29;;;;;;;2.93;1.20;;;4.40;78.60;;;;;;4979803;28;20250;-75
2022/02/25 00:55:54;;;;;;;1.93;1.03;;;4.40;78.90;;;;;;4988595;28;20425;-76
2022/02/25 00:58:21;;;;;;;4.83;1.80;;;4.40;79.30;;;;;;4989310;28;20242;-74
2022/02/25 01:00:47;;;;;;;2.40;1.30;;;4.40;79.70;;;;;;4977481;28;20190;-74
2022/02/25 01:03:13;;;;;;;2.87;1.20;;;4.30;79.70;;;;;;4972867;28;20425;-74
2022/02/25 01:05:39;;;;;;;1.77;1.23;;;4.30;79.70;;;;;;4979088;28;20415;-74
2022/02/25 01:08:07;;;;;;;3.33;1.23;;;4.30;80.20;;;;;;4975195;28;20449;-74
2022/02/25 01:10:37;;;;;;;2.43;1.20;;;4.30;79.50;;;;;;4981050;28;20431;-75
2022/02/25 01:13:04;;;;;;;2.93;2.10;;;4.20;79.70;;;;;;4973710;28;20422;-73
2022/02/25 01:15:30;;;;;;;3.67;1.17;;;4.10;79.20;;;;;;4974801;28;20411;-75
2022/02/25 01:17:56;;;;;;;1.80;1.30;;;4.10;79.60;;;;;;4974379;28;20450;-74
2022/02/25 01:20:21;;;;;;;2.93;1.37;;;4.00;80.20;;;;;;4966772;28;20518;-74
2022/02/25 01:22:47;;;;;;;3.00;1.47;;;4.00;80.50;;;;;;4984968;28;20446;-75
2022/02/25 01:25:14;;;;;;;2.50;1.37;;;4.00;79.90;;;;;;4974626;28;20207;-74
2022/02/25 01:27:40;;;;;;;4.90;1.90;;;3.90;78.40;;;;;;4974593;28;20213;-76
2022/02/25 01:30:08;;;;;;;5.23;1.60;;;3.80;77.70;;;;;;4959393;28;20963;-76
2022/02/25 01:32:33;;;;;;;6.03;1.60;;;3.80;78.60;;;;;;4982256;28;20420;-75
2022/02/25 01:35:00;;;;;;;5.70;1.70;;;3.70;78.90;;;;;;4986837;28;20831;-76
2022/02/25 01:37:26;;;;;;;2.03;1.37;;;3.80;78.90;;;;;;4981236;28;20477;-75
2022/02/25 01:39:52;;;;;;;2.80;1.70;;;3.70;78.30;;;;;;4992285;28;20418;-74
2022/02/25 01:42:18;;;;;;;2.40;1.30;;;3.60;78.60;;;;;;4986583;28;20424;-75
2022/02/25 01:44:44;;;;;;;4.23;1.40;;;3.60;79.00;;;;;;4980017;28;20470;-76
2022/02/25 01:47:14;;;;;;;3.30;1.27;;;3.60;79.20;;;;;;4983336;28;20500;-77
2022/02/25 01:49:41;;;;;;;3.43;2.00;;;3.50;78.60;;;;;;4984194;28;20430;-75
2022/02/25 01:52:16;;;;;;;3.27;1.90;;;3.50;78.60;;;;;;4978532;28;20959;-74
2022/02/25 01:54:43;;;;;;;2.95;1.40;;;3.50;78.60;;;;;;4994606;28;20492;-76
2022/02/25 01:57:12;;;;;;;5.30;1.67;;;3.50;78.60;;;;;;4983131;28;20222;-74
2022/02/25 01:59:38;;;;;;;3.97;1.70;;;3.40;78.60;;;;;;4972754;28;20488;-75
2022/02/25 02:02:05;;;;;;;2.37;1.30;;;3.40;78.60;;;;;;4980426;28;20797;-77
2022/02/25 02:04:31;;;;;;;4.50;1.60;;;3.30;79.00;;;;;;4983795;28;20493;-75
2022/02/25 02:06:57;;;;;;;2.90;1.53;;;3.30;79.30;;;;;;4984912;28;20742;-75
2022/02/25 02:09:23;;;;;;;11.03;1.60;;;3.30;79.30;;;;;;4999784;28;21022;-76
2022/02/25 02:11:51;;;;;;;2.37;1.80;;;3.20;79.20;;;;;;4990065;28;20453;-76
2022/02/25 02:14:20;;;;;;;2.37;1.37;;;3.20;79.30;;;;;;4987354;28;20525;-75
2022/02/25 02:16:47;;;;;;;2.40;1.37;;;3.20;79.00;;;;;;4987148;28;20512;-75
2022/02/25 02:19:15;;;;;;;4.53;1.60;;;3.20;79.30;;;;;;4986254;28;20886;-75
2022/02/25 02:21:46;;;;;;;2.53;1.57;;;3.10;79.50;;;;;;4982668;28;20433;-75
2022/02/25 02:24:13;;;;;;;3.03;1.20;;;3.10;79.30;;;;;;4987401;28;20988;-76
2022/02/25 02:26:39;;;;;;;4.80;1.23;;;3.10;79.30;;;;;;4974100;28;20442;-76
2022/02/25 02:29:06;;;;;;;7.40;1.80;;;3.10;79.30;;;;;;4972727;28;20853;-75
2022/02/25 02:31:32;;;;;;;1.73;1.33;;;3.10;79.00;;;;;;4974263;28;20426;-75
2022/02/25 02:33:58;;;;;;;1.97;1.50;;;3.10;79.30;;;;;;4976549;28;20450;-75
2022/02/25 02:36:24;;;;;;;2.33;1.50;;;3.10;79.30;;;;;;4993445;28;20426;-75
2022/02/25 02:38:50;;;;;;;3.83;1.30;;;3.10;79.00;;;;;;4968838;28;20846;-75
2022/02/25 02:41:16;;;;;;;3.20;1.53;;;3.10;78.10;;;;;;4966829;28;20179;-74
2022/02/25 02:43:43;;;;;;;2.70;1.40;;;3.00;78.60;;;;;;4969194;28;20521;-74
2022/02/25 02:46:09;;;;;;;5.10;1.30;;;3.10;78.60;;;;;;4972356;28;20418;-75
2022/02/25 02:48:35;;;;;;;3.63;1.30;;;3.10;78.30;;;;;;4973767;28;20425;-73
2022/02/25 02:51:01;;;;;;;3.17;1.57;;;3.00;78.40;;;;;;4973086;28;20953;-74
2022/02/25 02:53:27;;;;;;;3.30;1.20;;;3.00;78.70;;;;;;4972821;28;20740;-74
2022/02/25 02:55:53;;;;;;;4.28;1.60;;;3.00;78.40;;;;;;4982979;28;20434;-73
2022/02/25 02:58:20;;;;;;;4.67;1.60;;;3.10;78.60;;;;;;4970236;28;20222;-75
2022/02/25 03:00:48;;;;;;;2.53;1.20;;;3.10;78.70;;;;;;4973259;28;20187;-75
2022/02/25 03:03:14;;;;;;;2.67;1.50;;;3.10;78.90;;;;;;4975162;28;20515;-74
2022/02/25 03:05:41;;;;;;;10.77;1.70;;;3.00;79.20;;;;;;4986639;28;20528;-74
2022/02/25 03:08:08;;;;;;;2.10;1.57;;;3.00;79.50;;;;;;4982639;28;20878;-74
2022/02/25 03:10:35;;;;;;;3.97;1.60;;;3.10;79.50;;;;;;4982730;28;20776;-74
2022/02/25 03:13:02;;;;;;;2.80;1.50;;;3.10;79.60;;;;;;4989014;28;20430;-75
2022/02/25 03:15:28;;;;;;;5.63;1.60;;;3.10;79.60;;;;;;4979292;28;20498;-73
2022/02/25 03:17:54;;;;;;;4.30;1.40;;;3.10;79.70;;;;;;4985934;28;20884;-75
2022/02/25 03:20:22;;;;;;;6.70;2.10;;;3.10;79.70;;;;;;4989917;28;20657;-76
2022/02/25 03:22:48;;;;;;;5.23;1.73;;;3.10;79.60;;;;;;4982766;28;20196;-76
2022/02/25 03:25:15;;;;;;;6.00;2.10;;;3.10;79.90;;;;;;4980725;28;20476;-75
2022/02/25 03:27:41;;;;;;;13.87;2.23;;;3.10;80.00;;;;;;4982931;28;20858;-74
2022/02/25 03:30:08;;;;;;;8.57;1.67;;;3.10;80.30;;;;;;4968372;28;20438;-75
2022/02/25 03:32:34;;;;;;;5.05;1.80;;;3.10;80.30;;;;;;4968472;28;20432;-74
2022/02/25 03:35:01;;;;;;;3.60;1.73;;;3.00;80.30;;;;;;4976422;28;20746;-75
2022/02/25 03:37:29;;;;;;;4.90;1.90;;;3.10;80.50;;;;;;4984275;28;20286;-74
2022/02/25 03:39:57;;;;;;;4.70;1.77;;;3.00;80.60;;;;;;4980994;28;20432;-73
2022/02/25 03:42:22;;;;;;;6.67;2.50;;;3.00;80.80;;;;;;4980419;28;20433;-75
2022/02/25 03:44:48;;;;;;;3.07;1.60;;;3.10;80.80;;;;;;4987674;28;20465;-76
2022/02/25 03:47:14;;;;;;;4.03;1.90;;;3.10;80.50;;;;;;4972834;28;20289;-76
2022/02/25 03:49:40;;;;;;;2.70;1.50;;;3.00;80.60;;;;;;4971794;28;20210;-77
2022/02/25 03:52:06;;;;;;;6.20;1.67;;;3.00;80.60;;;;;;4976439;28;20979;-75
2022/02/25 03:54:32;;;;;;;7.37;1.90;;;3.00;80.30;;;;;;4974864;28;20194;-76
2022/02/25 03:56:58;;;;;;;3.73;1.50;;;3.00;80.50;;;;;;4987334;28;20545;-73
2022/02/25 03:59:24;;;;;;;3.07;1.23;;;3.00;80.60;;;;;;4976769;28;20529;-74
2022/02/25 04:01:52;;;;;;;2.70;1.60;;;2.90;80.80;;;;;;4976592;28;20485;-77
2022/02/25 04:04:22;;;;;;;8.13;2.10;;;2.90;80.90;;;;;;4974554;28;20211;-76
2022/02/25 04:06:48;;;;;;;4.13;1.93;;;2.90;81.50;;;;;;4966564;28;20474;-73
2022/02/25 04:09:18;;;;;;;3.30;1.83;;;2.80;81.90;;;;;;4979326;28;20852;-77
2022/02/25 04:11:47;;;;;;;3.37;1.73;;;2.70;82.40;;;;;;4982732;28;20241;-74
2022/02/25 04:14:19;;;;;;;4.73;1.80;;;2.60;83.00;;;;;;4985702;28;20509;-74
2022/02/25 04:16:45;;;;;;;2.85;1.70;;;2.70;83.30;;;;;;4975673;28;20485;-76
2022/02/25 04:19:11;;;;;;;2.80;1.73;;;2.70;83.30;;;;;;4975957;28;20207;-75
2022/02/25 04:21:37;;;;;;;4.37;1.60;;;2.70;83.30;;;;;;4985393;28;20865;-74
2022/02/25 04:24:03;;;;;;;2.75;1.45;;;2.70;83.00;;;;;;4992402;28;20980;-76
2022/02/25 04:26:29;;;;;;;5.20;1.80;;;2.70;82.40;;;;;;4990554;28;20208;-77
2022/02/25 04:28:55;;;;;;;5.20;1.93;;;2.70;81.90;;;;;;4986220;28;20429;-75
2022/02/25 04:31:20;;;;;;;3.57;1.50;;;2.80;81.50;;;;;;4980302;28;20430;-73
2022/02/25 04:33:46;;;;;;;4.43;1.50;;;2.80;81.40;;;;;;4978847;28;20558;-75
2022/02/25 04:36:13;;;;;;;3.20;1.07;;;2.80;81.50;;;;;;4975695;28;20191;-74
2022/02/25 04:38:39;;;;;;;5.80;1.77;;;2.80;80.60;;;;;;4975820;28;20187;-74
2022/02/25 04:41:05;;;;;;;4.85;1.90;;;2.80;80.80;;;;;;4975597;28;20465;-75
2022/02/25 04:43:32;;;;;;;4.30;1.27;;;2.90;80.80;;;;;;4990710;28;20233;-77
2022/02/25 04:45:58;;;;;;;2.15;1.48;;;2.90;80.30;;;;;;4976981;28;20191;-75
2022/02/25 04:48:25;;;;;;;6.57;1.60;;;2.90;80.20;;;;;;4974903;28;20582;-76
2022/02/25 04:50:50;;;;;;;7.57;1.50;;;2.90;80.20;;;;;;4975234;28;20179;-77
2022/02/25 04:53:16;;;;;;;5.40;1.70;;;2.90;80.30;;;;;;4985889;28;20422;-72
2022/02/25 04:55:46;;;;;;;11.77;1.70;;;3.00;80.00;;;;;;4975866;28;20482;-74
2022/02/25 04:58:13;;;;;;;2.15;1.30;;;3.00;79.70;;;;;;4982495;28;20215;-73
2022/02/25 05:00:39;;;;;;;7.25;1.95;;;3.00;79.90;;;;;;4973862;28;20191;-73
2022/02/25 05:03:05;;;;;;;5.50;1.40;;;3.00;80.00;;;;;;4976857;28;20211;-75
2022/02/25 05:05:31;;;;;;;6.63;1.50;;;3.00;79.90;;;;;;4975665;28;20508;-75
2022/02/25 05:07:59;;;;;;;5.90;1.50;;;3.00;80.30;;;;;;4968282;28;20231;-76
2022/02/25 05:10:26;;;;;;;4.00;1.60;;;3.00;80.00;;;;;;4968083;28;20193;-75
2022/02/25 05:12:52;;;;;;;8.32;1.50;;;3.00;80.00;;;;;;4972791;28;20430;-76
2022/02/25 05:20:48;;;;;;;5.60;1.33;;;3.00;79.90;;;;;;4967092;28;21004;-75
2022/02/25 05:23:14;;;;;;;4.83;1.43;;;3.10;79.70;;;;;;4978440;28;20815;-75
2022/02/25 05:25:40;;;;;;;1.90;1.30;;;3.10;79.30;;;;;;4971969;28;20475;-75
2022/02/25 05:28:06;;;;;;;7.83;1.77;;;3.20;79.20;;;;;;4966198;28;20438;-75
2022/02/25 05:30:32;;;;;;;5.60;1.27;;;3.20;78.90;;;;;;4971503;28;20430;-76
2022/02/25 05:32:58;;;;;;;3.90;1.87;;;3.30;78.70;;;;;;4963955;28;20459;-75
2022/02/25 05:35:25;;;;;;;6.70;2.20;;;3.20;78.60;;;;;;4966103;28;20478;-75
2022/02/25 05:37:51;;;;;;;5.88;1.70;;;3.30;78.70;;;;;;4968898;28;20457;-75
2022/02/25 05:40:19;;;;;;;8.20;1.83;;;3.30;78.90;;;;;;4964231;28;20191;-76
2022/02/25 05:42:46;;;;;;;6.00;1.90;;;3.30;79.00;;;;;;4968495;28;20430;-76
2022/02/25 05:45:13;;;;;;;4.03;1.70;;;3.30;78.90;;;;;;4967416;28;20470;-75
2022/02/25 05:47:40;;;;;;;6.27;1.70;;;3.40;78.40;;;;;;4971256;28;20310;-77
2022/02/25 05:50:09;;;;;;;6.43;1.70;;;3.40;78.00;;;;;;4982778;28;20422;-75
2022/02/25 05:52:35;;;;;;;3.43;1.50;;;3.40;78.00;;;;;;4980587;28;20414;-75
2022/02/25 05:55:01;;;;;;;5.97;1.53;;;3.40;77.70;;;;;;4978968;28;20542;-77
2022/02/25 05:57:26;;;;;;;37.90;2.77;;;3.50;77.60;;;;;;4979206;28;20470;-77
2022/02/25 05:59:52;;;;;;;4.13;1.70;;;3.50;77.40;;;;;;4978715;28;20198;-76
2022/02/25 06:02:18;;;;;;;7.70;1.97;;;3.50;77.60;;;;;;4969929;28;20277;-76
2022/02/25 06:04:43;;;;;;;7.20;1.90;;;3.40;78.30;;;;;;4968122;28;20215;-77
2022/02/25 06:07:09;;;;;;;5.57;1.90;;;3.40;79.50;;;;;;4967945;28;20221;-79
2022/02/25 06:09:35;;;;;;;5.37;2.00;;;3.40;79.60;;;;;;4977320;28;20206;-78
2022/02/25 06:12:01;;;;;;;5.77;1.90;;;3.30;79.70;;;;;;4975197;28;20258;-76
2022/02/25 06:14:27;;;;;;;5.75;2.10;;;3.20;80.00;;;;;;4975101;28;20183;-78
2022/02/25 06:16:53;;;;;;;5.37;2.07;;;3.20;80.30;;;;;;4974031;28;20203;-78
2022/02/25 06:19:19;;;;;;;8.83;2.10;;;3.20;80.60;;;;;;4971046;28;20187;-77
2022/02/25 06:21:45;;;;;;;4.33;2.30;;;3.20;80.90;;;;;;4971665;28;20430;-78
2022/02/25 06:24:11;;;;;;;3.23;1.70;;;3.10;80.80;;;;;;4973426;28;20242;-78
2022/02/25 06:26:37;;;;;;;9.97;2.00;;;3.10;81.10;;;;;;4972830;28;20823;-76
2022/02/25 06:29:03;;;;;;;4.40;2.10;;;3.10;80.90;;;;;;4963728;28;20183;-77
2022/02/25 06:31:29;;;;;;;8.43;2.27;;;3.10;81.10;;;;;;4974464;28;20429;-79
2022/02/25 06:33:55;;;;;;;4.10;1.90;;;3.10;81.20;;;;;;4983816;28;20498;-78
2022/02/25 06:36:21;;;;;;;8.03;1.83;;;3.00;81.50;;;;;;4975282;28;20570;-77
2022/02/25 06:38:48;;;;;;;3.70;1.77;;;3.00;81.70;;;;;;4975819;28;20680;-79
2022/02/25 06:41:15;;;;;;;14.73;2.60;;;3.00;81.70;;;;;;4980486;28;20567;-77
2022/02/25 06:43:41;;;;;;;5.73;2.60;;;3.00;81.50;;;;;;4975929;28;20470;-77
2022/02/25 06:46:08;;;;;;;6.93;2.00;;;3.00;81.80;;;;;;4965958;28;20505;-78
2022/02/25 06:48:34;;;;;;;5.18;1.77;;;3.00;81.70;;;;;;4975560;28;20502;-78
2022/02/25 06:51:00;;;;;;;4.97;2.40;;;3.00;81.70;;;;;;4974578;28;20278;-78
2022/02/25 06:53:26;;;;;;;6.20;2.40;;;3.10;81.80;;;;;;4977342;28;20183;-77
2022/02/25 06:55:51;;;;;;;9.80;2.53;;;3.10;81.50;;;;;;4981346;28;20187;-78
2022/02/25 06:58:17;;;;;;;5.50;2.10;;;3.10;81.50;;;;;;4982772;28;20603;-78
2022/02/25 07:00:43;;;;;;;5.40;2.40;;;3.00;81.70;;;;;;4992425;28;20246;-79
2022/02/25 07:03:09;;;;;;;6.70;2.17;;;3.10;81.80;;;;;;4987948;28;20432;-77
2022/02/25 07:05:39;;;;;;;7.18;2.22;;;3.10;81.80;;;;;;4994214;28;20461;-78
2022/02/25 07:08:05;;;;;;;5.30;1.80;;;3.10;81.80;;;;;;4977584;28;20190;-78
2022/02/25 07:10:35;;;;;;;5.50;2.10;;;3.10;81.80;;;;;;4992167;28;20418;-78
2022/02/25 07:13:02;;;;;;;5.00;2.53;;;3.10;81.70;;;;;;4982616;28;20431;-77
2022/02/25 07:15:28;;;;;;;11.48;2.40;;;3.10;81.70;;;;;;4993168;28;20430;-79
2022/02/25 07:17:53;;;;;;;7.90;2.10;;;3.10;81.80;;;;;;4984587;28;20717;-79
2022/02/25 07:20:19;;;;;;;6.17;2.00;;;3.10;82.10;;;;;;4983712;28;20427;-78
2022/02/25 07:22:46;;;;;;;5.33;2.30;;;3.20;81.90;;;;;;4993651;28;20441;-78
2022/02/25 07:25:13;;;;;;;6.43;2.03;;;3.10;82.10;;;;;;4985908;28;20637;-78
2022/02/25 07:27:39;;;;;;;8.47;2.70;;;3.20;81.80;;;;;;4981756;28;20206;-79
2022/02/25 07:30:05;;;;;;;8.17;2.30;;;3.20;82.10;;;;;;4983013;28;20925;-79
2022/02/25 07:32:31;;;;;;;4.00;2.13;;;3.20;81.70;;;;;;4982952;28;20270;-77
2022/02/25 07:34:57;;;;;;;6.17;2.27;;;3.30;81.20;;;;;;4996664;28;20503;-78
2022/02/25 07:37:23;;;;;;;4.00;2.10;;;3.30;80.80;;;;;;4981473;28;20258;-78
2022/02/25 07:39:48;;;;;;;4.30;2.47;;;3.40;80.50;;;;;;4983029;28;20551;-77
2022/02/25 07:42:14;;;;;;;5.23;2.17;;;3.40;80.30;;;;;;4981801;28;20586;-77
2022/02/25 07:44:40;;;;;;;11.60;1.90;;;3.50;80.20;;;;;;4982652;28;20206;-78
2022/02/25 07:47:06;;;;;;;4.53;2.07;;;3.50;80.00;;;;;;4985975;28;20230;-78
2022/02/25 07:49:32;;;;;;;6.90;2.70;;;3.50;79.60;;;;;;4982207;28;20182;-78
2022/02/25 07:51:58;;;;;;;4.90;1.67;;;3.60;79.00;;;;;;4976145;28;20972;-78
2022/02/25 07:54:25;;;;;;;7.73;2.23;;;3.60;78.90;;;;;;4982477;28;20418;-79
2022/02/25 07:56:52;;;;;;;6.07;1.80;;;3.70;78.30;;;;;;4976939;28;20239;-78
2022/02/25 07:59:17;;;;;;;16.13;2.47;;;3.70;77.60;;;;;;4982590;28;20446;-79
2022/02/25 08:01:44;;;;;;;6.53;2.30;;;3.80;77.10;;;;;;4982710;28;20270;-78
2022/02/25 08:04:09;;;;;;;6.07;2.57;;;3.90;76.70;;;;;;4989292;28;20322;-80
2022/02/25 08:06:36;;;;;;;5.63;1.70;;;3.90;76.50;;;;;;4984295;28;20474;-78
2022/02/25 08:09:03;;;;;;;8.77;1.97;;;3.90;76.20;;;;;;4982779;28;20191;-77
2022/02/25 08:11:29;;;;;;;6.13;1.80;;;4.00;75.70;;;;;;4994111;28;20432;-79
2022/02/25 08:13:55;;;;;;;5.47;1.90;;;4.10;75.20;;;;;;4995205;28;20436;-76
2022/02/25 08:16:22;;;;;;;3.50;2.00;;;4.10;74.60;;;;;;4979681;28;20426;-80
2022/02/25 08:18:48;;;;;;;5.97;3.47;;;4.20;74.00;;;;;;4984364;28;20497;-77
2022/02/25 08:21:14;;;;;;;6.10;2.10;;;4.30;73.60;;;;;;4982823;28;20438;-78
2022/02/25 08:23:40;;;;;;;6.77;1.90;;;4.30;73.20;;;;;;4980702;28;20461;-78
2022/02/25 08:26:05;;;;;;;10.00;1.93;;;4.30;73.50;;;;;;4979331;28;20184;-79
2022/02/25 08:28:31;;;;;;;4.67;1.73;;;4.30;73.30;;;;;;4977937;28;20219;-79
2022/02/25 08:30:57;;;;;;;6.03;1.93;;;4.30;73.60;;;;;;4970016;28;20191;-79
2022/02/25 08:33:23;;;;;;;12.17;2.33;;;4.40;73.50;;;;;;4978187;28;20171;-77
2022/02/25 08:35:48;;;;;;;10.97;3.47;;;4.40;73.00;;;;;;4967570;28;20431;-80
2022/02/25 08:38:17;;;;;;;12.10;2.50;;;4.40;73.30;;;;;;4977253;28;20199;-80
2022/02/25 08:40:43;;;;;;;4.97;2.30;;;4.40;73.00;;;;;;4976742;28;20190;-79
2022/02/25 08:43:09;;;;;;;8.50;2.03;;;4.40;73.20;;;;;;4972642;28;20426;-77
2022/02/25 08:45:35;;;;;;;7.23;2.00;;;4.50;73.20;;;;;;4975710;28;20485;-78
2022/02/25 08:48:01;;;;;;;6.23;2.50;;;4.50;72.90;;;;;;4991709;28;20959;-78
2022/02/25 08:50:27;;;;;;;8.93;2.00;;;4.60;72.30;;;;;;4981881;28;20423;-78
2022/02/25 08:52:55;;;;;;;10.60;2.03;;;4.60;73.00;;;;;;4983675;28;20856;-78
2022/02/25 08:55:22;;;;;;;9.13;2.57;;;4.70;73.20;;;;;;4979389;28;20481;-78
2022/02/25 08:57:48;;;;;;;8.63;2.30;;;4.70;73.20;;;;;;4972788;28;20513;-79
2022/02/25 09:00:19;;;;;;;7.27;2.50;;;4.80;72.60;;;;;;4968154;28;20426;-77
2022/02/25 09:02:47;;;;;;;6.40;2.00;;;4.80;72.70;;;;;;4971489;28;20496;-78
2022/02/25 09:05:13;;;;;;;4.10;1.90;;;4.80;72.90;;;;;;4979825;28;20568;-77
2022/02/25 09:07:39;;;;;;;4.93;2.03;;;4.80;72.60;;;;;;4980969;28;20515;-78
2022/02/25 09:10:07;;;;;;;8.50;1.80;;;4.90;72.30;;;;;;4976552;28;20913;-78
2022/02/25 09:12:34;;;;;;;7.97;2.10;;;4.90;71.40;;;;;;4976971;28;20179;-78
2022/02/25 09:15:00;;;;;;;5.97;2.27;;;4.90;70.80;;;;;;4980676;28;20423;-78
2022/02/25 09:17:26;;;;;;;11.53;2.30;;;5.00;71.00;;;;;;4977089;28;20446;-78
2022/02/25 09:19:53;;;;;;;5.03;1.57;;;5.10;71.00;;;;;;4976490;28;20419;-78
2022/02/25 09:22:19;;;;;;;4.53;1.70;;;5.10;70.20;;;;;;4975113;28;20446;-78
2022/02/25 09:24:45;;;;;;;5.80;2.17;;;5.20;70.40;;;;;;4975396;28;20545;-79
2022/02/25 09:27:11;;;;;;;8.27;2.00;;;5.40;70.40;;;;;;4982542;28;20471;-78
2022/02/25 09:29:36;;;;;;;10.63;2.97;;;5.50;68.30;;;;;;4974813;28;20457;-77
2022/02/25 09:32:04;;;;;;;12.23;2.40;;;5.50;67.30;;;;;;4992001;28;20183;-78
2022/02/25 09:34:30;;;;;;;7.07;2.33;;;5.50;66.30;;;;;;4973343;28;20179;-79
2022/02/25 09:36:55;;;;;;;6.20;2.40;;;5.60;66.40;;;;;;4974004;28;20530;-79
2022/02/25 09:39:21;;;;;;;6.63;2.13;;;5.60;65.80;;;;;;4976966;28;20191;-77
2022/02/25 09:41:48;;;;;;;5.43;1.80;;;5.70;66.10;;;;;;4984561;28;20190;-77
2022/02/25 09:44:15;;;;;;;5.67;1.80;;;5.80;66.00;;;;;;4982226;28;20289;-78
2022/02/25 09:46:43;;;;;;;7.00;2.00;;;5.80;65.00;;;;;;4993966;28;20442;-77
2022/02/25 09:49:10;;;;;;;10.17;1.90;;;5.90;64.40;;;;;;4970140;28;20415;-79
2022/02/25 09:51:36;;;;;;;5.67;1.90;;;5.90;63.50;;;;;;4980066;28;20466;-78
2022/02/25 09:54:03;;;;;;;4.90;1.87;;;6.10;63.20;;;;;;4991908;28;20410;-79
2022/02/25 09:56:29;;;;;;;7.00;1.60;;;6.10;63.40;;;;;;4996792;28;20524;-78
2022/02/25 09:58:57;;;;;;;3.07;1.70;;;6.20;62.50;;;;;;4987684;28;20469;-79
2022/02/25 10:01:29;;;;;;;8.60;1.97;;;6.20;61.00;;;;;;4984344;28;20784;-77
2022/02/25 10:03:55;;;;;;;4.47;1.57;;;6.20;61.30;;;;;;4987821;28;20462;-77
2022/02/25 10:06:29;;;;;;;7.40;1.83;;;6.20;62.00;;;;;;4978224;28;20763;-78
2022/02/25 10:08:56;;;;;;;7.37;1.93;;;6.30;62.30;;;;;;4995075;28;20245;-82
2022/02/25 10:11:22;;;;;;;5.20;1.77;;;6.40;62.30;;;;;;4979630;28;20427;-79
2022/02/25 10:13:48;;;;;;;7.00;1.97;;;6.60;61.50;;;;;;4976538;28;20932;-81
2022/02/25 10:16:14;;;;;;;8.87;2.23;;;6.70;60.30;;;;;;4976129;28;20437;-79
2022/02/25 10:18:43;;;;;;;4.87;1.87;;;6.70;60.10;;;;;;4975275;28;20190;-80
2022/02/25 10:21:16;;;;;;;3.57;1.43;;;6.60;60.10;;;;;;4976148;28;20488;-79
2022/02/25 10:23:46;;;;;;;7.30;1.77;;;6.60;60.60;;;;;;4980868;28;20446;-79
2022/02/25 10:26:15;;;;;;;5.37;1.73;;;6.60;60.60;;;;;;4987909;28;20517;-79
2022/02/25 10:28:43;;;;;;;7.33;1.80;;;6.50;60.70;;;;;;4972192;28;20442;-79
2022/02/25 10:31:30;;;;;;;4.93;1.90;;;6.50;59.90;;;;;;4974265;28;20423;-78
2022/02/25 10:34:00;;;;;;;5.13;1.97;;;6.40;59.20;;;;;;4980971;28;20434;-80
2022/02/25 10:36:28;;;;;;;6.43;2.03;;;6.50;60.10;;;;;;4975676;28;20418;-78
2022/02/25 10:38:54;;;;;;;7.10;2.23;;;6.70;60.10;;;;;;4975659;28;20971;-76
2022/02/25 10:41:21;;;;;;;4.30;1.90;;;6.70;59.10;;;;;;4975486;28;20502;-79
2022/02/25 10:43:47;;;;;;;9.67;1.93;;;6.70;59.30;;;;;;4976338;28;20191;-79
2022/02/25 10:46:13;;;;;;;4.20;1.37;;;7.00;59.50;;;;;;4991021;28;20421;-80
2022/02/25 10:48:38;;;;;;;7.87;1.60;;;7.40;58.50;;;;;;4974229;28;20604;-79
2022/02/25 10:51:06;;;;;;;4.83;2.13;;;7.50;56.40;;;;;;4984880;28;20174;-79
2022/02/25 10:53:49;;;;;;;7.67;1.93;;;7.80;55.70;;;;;;4982051;28;20188;-80
2022/02/25 10:56:18;;;;;;;5.30;1.63;;;8.10;54.60;;;;;;4974967;28;20795;-79
2022/02/25 10:58:48;;;;;;;4.50;1.70;;;8.20;53.40;;;;;;4973142;28;20453;-79
2022/02/25 11:01:20;;;;;;;3.23;1.50;;;8.20;53.40;;;;;;4973437;28;20415;-78
2022/02/25 11:04:02;;;;;;;8.10;2.03;;;7.90;54.20;;;;;;4974963;28;20790;-80
2022/02/25 11:06:30;;;;;;;3.43;1.30;;;7.80;54.80;;;;;;4974495;28;20431;-79
2022/02/25 11:08:57;;;;;;;5.10;1.70;;;7.70;54.10;;;;;;4973302;28;20494;-81
2022/02/25 11:11:24;;;;;;;3.27;1.47;;;7.70;52.40;;;;;;4969513;28;20430;-78
2022/02/25 11:13:50;;;;;;;3.23;1.30;;;7.70;52.20;;;;;;4977706;28;20892;-81
2022/02/25 11:16:18;;;;;;;3.47;1.30;;;7.90;53.60;;;;;;4977200;28;20423;-80
2022/02/25 11:18:46;;;;;;;3.37;1.93;;;8.40;52.90;;;;;;4973559;28;20874;-80
2022/02/25 11:21:13;;;;;;;5.40;1.70;;;8.50;50.90;;;;;;4968726;28;20901;-82
2022/02/25 11:23:43;;;;;;;5.10;1.80;;;8.70;51.40;;;;;;4978206;28;20517;-80
2022/02/25 11:26:13;;;;;;;8.80;2.00;;;9.10;51.20;;;;;;4972722;28;20516;-81
2022/02/25 11:28:40;;;;;;;4.50;1.70;;;9.10;48.70;;;;;;4972918;28;20431;-79
2022/02/25 11:31:26;;;;;;;7.47;1.90;;;8.80;49.40;;;;;;4976539;28;20457;-80
2022/02/25 11:33:53;;;;;;;4.37;1.50;;;8.80;48.90;;;;;;4980820;28;20434;-79
2022/02/25 11:36:20;;;;;;;5.83;1.60;;;8.40;49.40;;;;;;4976812;28;20430;-79
2022/02/25 11:38:48;;;;;;;8.13;1.67;;;7.90;50.30;;;;;;4985904;28;20446;-78
2022/02/25 11:41:20;;;;;;;4.90;2.00;;;8.20;49.70;;;;;;4988057;28;20466;-78
2022/02/25 11:43:51;;;;;;;7.30;1.97;;;8.30;48.50;;;;;;4979675;28;20443;-81
2022/02/25 11:46:29;;;;;;;7.77;2.00;;;8.30;48.20;;;;;;4979361;28;20434;-79
2022/02/25 11:49:13;;;;;;;5.87;1.63;;;7.90;48.90;;;;;;4965646;28;20449;-77
2022/02/25 11:51:48;;;;;;;3.20;1.47;;;8.00;49.30;;;;;;4982428;28;20426;-77
2022/02/25 11:54:35;;;;;;;8.90;2.00;;;7.90;50.10;;;;;;4970972;28;20422;-77
2022/02/25 11:57:08;;;;;;;3.00;1.33;;;7.90;50.60;;;;;;4986946;28;20446;-79
2022/02/25 11:59:33;;;;;;;4.73;1.30;;;7.90;49.40;;;;;;4992457;28;20508;-80
2022/02/25 12:02:16;;;;;;;3.10;1.30;;;7.80;48.90;;;;;;4990471;28;20434;-79
2022/02/25 12:05:06;;;;;;;8.10;1.50;;;7.70;50.10;;;;;;4986286;28;20208;-80
2022/02/25 12:07:45;;;;;;;5.17;1.70;;;7.80;51.00;;;;;;4971580;28;20461;-78
2022/02/25 12:10:11;;;;;;;3.47;1.50;;;8.20;50.50;;;;;;4993034;28;20519;-79
2022/02/25 12:12:38;;;;;;;7.00;2.23;;;8.60;49.90;;;;;;4981214;28;20956;-77
2022/02/25 12:15:15;;;;;;;5.50;1.87;;;9.00;49.10;;;;;;4982573;28;20179;-77
2022/02/25 12:17:55;;;;;;;3.87;1.50;;;9.30;47.40;;;;;;4981395;28;20823;-78
2022/02/25 12:20:44;;;;;;;5.47;1.80;;;9.10;46.90;;;;;;4981815;28;20438;-78
2022/02/25 12:23:23;;;;;;;4.17;1.57;;;8.90;48.30;;;;;;4971745;28;20481;-78
2022/02/25 12:25:55;;;;;;;8.93;1.70;;;8.40;49.10;;;;;;4978718;28;20470;-78
2022/02/25 12:28:26;;;;;;;6.93;2.23;;;8.30;49.70;;;;;;4980110;28;20449;-80
2022/02/25 12:31:13;;;;;;;7.87;1.53;;;8.00;50.20;;;;;;4979800;28;20552;-81
2022/02/25 12:33:45;;;;;;;3.30;1.63;;;7.80;50.90;;;;;;4982003;28;20419;-79
2022/02/25 12:36:29;;;;;;;6.53;1.83;;;7.70;51.80;;;;;;4977278;28;20513;-79
2022/02/25 12:39:08;;;;;;;7.20;1.70;;;7.70;52.00;;;;;;4981745;28;20446;-79
2022/02/25 12:41:56;;;;;;;6.80;1.97;;;7.60;53.30;;;;;;4980013;28;20431;-78
2022/02/25 12:44:24;;;;;;;6.10;2.00;;;7.60;53.60;;;;;;4991174;28;20512;-79
2022/02/25 12:46:59;;;;;;;8.03;1.90;;;7.90;53.40;;;;;;4983978;28;20454;-80
2022/02/25 12:49:30;;;;;;;6.50;1.87;;;8.20;52.60;;;;;;4985675;28;20426;-77
2022/02/25 12:51:59;;;;;;;4.40;1.53;;;8.10;52.80;;;;;;4989592;28;20429;-79
2022/02/25 12:54:27;;;;;;;9.00;2.03;;;8.00;53.40;;;;;;4985496;28;20426;-78
2022/02/25 12:57:02;;;;;;;4.37;1.50;;;7.90;53.70;;;;;;4993466;28;20496;-79
2022/02/25 12:59:41;;;;;;;3.80;1.40;;;7.70;53.80;;;;;;4998028;28;20465;-79
2022/02/25 13:02:12;;;;;;;6.60;1.60;;;7.50;54.80;;;;;;4992368;28;20434;-80
2022/02/25 13:04:46;;;;;;;8.77;1.60;;;7.40;55.30;;;;;;4983305;28;20517;-79